createdAt,value
2023-04-30T00:00:24.987Z,15.8462
2023-04-30T00:01:26.413Z,15.6154
2023-04-30T00:02:27.868Z,15.8308
2023-04-30T00:03:29.450Z,16.2615
2023-04-30T00:04:30.654Z,16.2769
2023-04-30T00:05:32.147Z,16.0000
2023-04-30T00:06:33.600Z,15.8154
2023-04-30T00:07:34.966Z,16.2000
2023-04-30T00:08:36.325Z,16.2154
2023-04-30T00:09:37.786Z,16.3692
2023-04-30T00:10:39.276Z,16.3538
2023-04-30T00:11:40.682Z,16.1538
2023-04-30T00:12:42.057Z,16.1846
2023-04-30T00:13:43.517Z,15.8615
2023-04-30T00:14:44.902Z,15.3385
2023-04-30T00:15:46.392Z,15.7077
2023-04-30T00:16:47.885Z,16.5231
2023-04-30T00:17:49.235Z,17.1538
2023-04-30T00:18:50.632Z,16.8308
2023-04-30T00:19:52.215Z,16.6000
2023-04-30T00:20:53.524Z,16.7385
2023-04-30T00:21:54.933Z,16.7846
2023-04-30T00:22:56.327Z,16.0308
2023-04-30T00:23:57.780Z,16.1231
2023-04-30T00:24:59.071Z,16.3077
2023-04-30T00:26:00.666Z,16.6769
2023-04-30T00:27:02.064Z,16.7231
2023-04-30T00:28:03.466Z,16.2923
2023-04-30T00:29:04.866Z,15.9538
2023-04-30T00:30:06.308Z,16.6308
2023-04-30T00:31:07.643Z,17.0308
2023-04-30T00:32:09.271Z,16.8308
2023-04-30T00:33:10.640Z,16.2462
2023-04-30T00:34:12.033Z,16.6462
2023-04-30T00:35:13.334Z,16.9231
2023-04-30T00:36:14.849Z,16.2923
2023-04-30T00:37:16.313Z,16.7846
2023-04-30T00:38:17.738Z,16.9385
2023-04-30T00:39:19.104Z,16.8154
2023-04-30T00:40:20.600Z,16.3385
2023-04-30T00:41:21.972Z,16.2615
2023-04-30T00:42:23.516Z,16.4769
2023-04-30T00:43:24.804Z,16.8462
2023-04-30T00:44:26.258Z,15.6308
2023-04-30T00:45:27.694Z,15.7692
2023-04-30T00:46:29.275Z,16.0615
2023-04-30T00:47:30.642Z,16.6308
2023-04-30T00:48:31.994Z,17.1231
2023-04-30T00:49:33.375Z,16.9692
2023-04-30T00:50:34.731Z,16.4154
2023-04-30T00:51:36.363Z,16.5692
2023-04-30T00:52:37.626Z,16.1385
2023-04-30T00:53:39.112Z,16.5385
2023-04-30T00:54:40.484Z,16.4769
2023-04-30T00:55:41.992Z,16.0462
2023-04-30T00:56:43.376Z,16.5692
2023-04-30T00:57:44.852Z,15.6308
2023-04-30T00:58:46.261Z,17.0154
2023-04-30T00:59:47.640Z,17.0923
2023-04-30T01:00:49.048Z,16.8615
2023-04-30T01:01:50.518Z,16.3538
2023-04-30T01:02:51.981Z,16.4154
2023-04-30T01:03:53.341Z,15.5231
2023-04-30T01:04:54.646Z,16.3077
2023-04-30T01:05:56.245Z,16.6769
2023-04-30T01:06:57.536Z,16.8000
2023-04-30T01:07:59.141Z,17.4462
2023-04-30T01:09:00.448Z,17.3692
2023-04-30T01:10:01.882Z,17.3538
2023-04-30T01:11:03.306Z,16.5077
2023-04-30T01:12:04.724Z,16.1538
2023-04-30T01:13:06.172Z,16.7692
2023-04-30T01:14:07.640Z,15.8000
2023-04-30T01:15:08.902Z,16.0000
2023-04-30T01:16:10.572Z,16.7846
2023-04-30T01:17:11.861Z,16.4769
2023-04-30T01:18:13.374Z,16.4308
2023-04-30T01:19:14.691Z,16.5692
2023-04-30T01:20:16.131Z,15.8000
2023-04-30T01:21:17.542Z,16.8462
2023-04-30T01:22:18.941Z,16.9077
2023-04-30T01:23:20.459Z,15.4769
2023-04-30T01:24:21.824Z,16.2462
2023-04-30T01:25:23.246Z,16.6000
2023-04-30T01:26:24.636Z,16.8615
2023-04-30T01:27:26.103Z,16.4000
2023-04-30T01:28:27.565Z,15.9231
2023-04-30T01:29:28.918Z,16.7692
2023-04-30T01:30:30.395Z,16.9692
2023-04-30T01:31:31.782Z,16.0769
2023-04-30T01:32:33.247Z,15.5692
2023-04-30T01:33:34.644Z,15.9385
2023-04-30T01:34:36.079Z,15.6615
2023-04-30T01:35:37.471Z,17.0615
2023-04-30T01:36:38.931Z,16.2000
2023-04-30T01:37:40.300Z,16.6769
2023-04-30T01:38:41.818Z,15.5692
2023-04-30T01:39:43.210Z,16.4154
2023-04-30T01:40:44.643Z,16.8923
2023-04-30T01:41:46.007Z,16.3846
2023-04-30T01:42:47.495Z,16.4154
2023-04-30T01:43:48.901Z,16.6308
2023-04-30T01:44:50.379Z,17.1538
2023-04-30T01:45:51.731Z,16.2154
2023-04-30T01:46:53.186Z,15.7231
2023-04-30T01:47:54.594Z,16.0769
2023-04-30T01:48:55.980Z,16.2769
2023-04-30T01:49:57.430Z,16.4615
2023-04-30T01:50:58.820Z,16.4462
2023-04-30T01:52:00.255Z,16.0154
2023-04-30T01:53:01.687Z,16.7538
2023-04-30T01:54:03.123Z,16.1538
2023-04-30T01:55:04.588Z,16.0769
2023-04-30T01:56:06.009Z,15.6000
2023-04-30T01:57:07.416Z,15.5692
2023-04-30T01:58:08.889Z,15.9692
2023-04-30T01:59:10.173Z,16.9846
2023-04-30T02:00:11.773Z,16.5077
2023-04-30T02:01:13.038Z,16.2154
2023-04-30T02:02:14.527Z,17.2462
2023-04-30T02:03:16.069Z,16.1231
2023-04-30T02:04:17.404Z,17.6308
2023-04-30T02:05:18.828Z,16.6154
2023-04-30T02:06:20.348Z,16.9692
2023-04-30T02:07:21.649Z,17.2000
2023-04-30T02:08:23.097Z,17.4615
2023-04-30T02:09:24.500Z,17.9077
2023-04-30T02:10:26.066Z,18.6000
2023-04-30T02:11:27.366Z,18.2154
2023-04-30T02:12:28.851Z,18.1231
2023-04-30T02:13:30.217Z,18.0923
2023-04-30T02:14:31.692Z,17.8462
2023-04-30T02:15:33.136Z,17.3846
2023-04-30T02:16:34.653Z,17.2000
2023-04-30T02:17:36.008Z,17.0769
2023-04-30T02:18:37.403Z,17.2923
2023-04-30T02:19:38.802Z,17.5538
2023-04-30T02:20:40.244Z,17.5231
2023-04-30T02:21:41.729Z,17.3385
2023-04-30T02:22:43.060Z,17.2615
2023-04-30T02:23:44.458Z,16.9231
2023-04-30T02:24:45.937Z,16.7231
2023-04-30T02:25:47.444Z,16.8615
2023-04-30T02:26:48.709Z,16.5385
2023-04-30T02:27:50.231Z,17.2769
2023-04-30T02:28:51.594Z,17.1538
2023-04-30T02:29:53.200Z,17.3231
2023-04-30T02:30:54.471Z,17.4462
2023-04-30T02:31:56.012Z,17.2154
2023-04-30T02:32:57.336Z,16.9846
2023-04-30T02:33:58.817Z,17.4462
2023-04-30T02:35:00.218Z,17.2154
2023-04-30T02:36:01.669Z,17.6154
2023-04-30T02:37:03.036Z,17.6769
2023-04-30T02:38:04.510Z,17.5538
2023-04-30T02:39:05.830Z,16.7846
2023-04-30T02:40:07.273Z,17.2000
2023-04-30T02:41:08.699Z,17.1385
2023-04-30T02:42:10.224Z,17.6923
2023-04-30T02:43:11.574Z,18.1231
2023-04-30T02:44:13.068Z,17.5692
2023-04-30T02:45:14.302Z,17.0769
2023-04-30T02:46:15.904Z,17.7231
2023-04-30T02:47:17.328Z,17.7692
2023-04-30T02:48:18.675Z,17.5077
2023-04-30T02:49:20.069Z,17.8769
2023-04-30T02:50:21.496Z,17.8154
2023-04-30T02:51:22.911Z,17.6462
2023-04-30T02:52:24.466Z,17.4000
2023-04-30T02:53:25.767Z,17.4154
2023-04-30T02:54:27.231Z,17.8462
2023-04-30T02:55:28.608Z,17.8769
2023-04-30T02:56:30.055Z,17.6769
2023-04-30T02:57:31.494Z,17.4769
2023-04-30T02:58:32.878Z,17.5692
2023-04-30T02:59:34.377Z,17.4462
2023-04-30T03:00:35.730Z,17.5385
2023-04-30T03:01:37.224Z,17.8923
2023-04-30T03:02:38.658Z,18.1385
2023-04-30T03:03:40.113Z,18.1692
2023-04-30T03:04:41.431Z,18.2000
2023-04-30T03:05:42.834Z,18.0769
2023-04-30T03:06:44.312Z,17.6154
2023-04-30T03:07:45.725Z,17.4308
2023-04-30T03:08:47.075Z,17.6923
2023-04-30T03:09:48.543Z,17.2923
2023-04-30T03:10:49.922Z,16.9846
2023-04-30T03:11:51.384Z,16.9231
2023-04-30T03:12:52.796Z,17.6923
2023-04-30T03:13:54.253Z,17.9385
2023-04-30T03:14:55.614Z,17.6308
2023-04-30T03:15:57.126Z,17.9846
2023-04-30T03:16:58.471Z,17.6923
2023-04-30T03:18:00.075Z,17.3385
2023-04-30T03:19:01.341Z,17.2308
2023-04-30T03:20:02.785Z,17.9231
2023-04-30T03:21:04.203Z,18.2154
2023-04-30T03:22:05.670Z,18.5231
2023-04-30T03:23:07.087Z,18.1692
2023-04-30T03:24:08.507Z,18.5846
2023-04-30T03:25:09.832Z,17.9231
2023-04-30T03:26:11.336Z,17.0615
2023-04-30T03:27:12.728Z,16.9231
2023-04-30T03:28:14.264Z,16.1846
2023-04-30T03:29:15.568Z,17.0154
2023-04-30T03:30:17.030Z,17.4000
2023-04-30T03:31:19.244Z,17.3385
2023-04-30T03:32:19.868Z,17.3231
2023-04-30T03:33:21.351Z,17.1385
2023-04-30T03:34:22.728Z,17.1231
2023-04-30T03:35:24.110Z,17.2154
2023-04-30T03:36:25.529Z,17.5231
2023-04-30T03:37:26.964Z,17.1538
2023-04-30T03:38:28.429Z,17.3231
2023-04-30T03:39:29.841Z,17.1231
2023-04-30T03:40:31.221Z,17.5231
2023-04-30T03:41:32.664Z,17.7846
2023-04-30T03:42:34.081Z,17.3692
2023-04-30T03:43:35.544Z,17.5846
2023-04-30T03:44:36.900Z,17.6615
2023-04-30T03:45:38.378Z,18.4308
2023-04-30T03:46:39.792Z,17.9077
2023-04-30T03:47:41.344Z,17.2308
2023-04-30T03:48:42.774Z,16.8000
2023-04-30T03:49:44.146Z,16.2615
2023-04-30T03:50:45.491Z,16.3385
2023-04-30T03:51:47.047Z,16.6308
2023-04-30T03:52:48.420Z,16.9846
2023-04-30T03:53:49.890Z,16.9538
2023-04-30T03:54:51.359Z,17.0615
2023-04-30T03:55:52.694Z,17.0615
2023-04-30T03:56:54.102Z,17.4000
2023-04-30T03:57:55.543Z,17.4308
2023-04-30T03:58:56.987Z,17.5077
2023-04-30T03:59:58.461Z,16.9846
2023-04-30T04:00:59.796Z,17.9077
2023-04-30T04:02:01.278Z,18.4308
2023-04-30T04:03:02.717Z,18.2154
2023-04-30T04:04:04.146Z,17.1538
2023-04-30T04:05:05.545Z,16.8923
2023-04-30T04:06:07.030Z,16.2000
2023-04-30T04:07:08.384Z,16.9077
2023-04-30T04:08:09.862Z,17.1846
2023-04-30T04:09:11.291Z,17.0308
2023-04-30T04:10:12.721Z,16.6154
2023-04-30T04:11:14.060Z,16.9538
2023-04-30T04:12:15.419Z,17.4923
2023-04-30T04:13:16.904Z,17.4000
2023-04-30T04:14:18.367Z,16.7077
2023-04-30T04:15:19.777Z,16.7077
2023-04-30T04:16:21.230Z,16.7538
2023-04-30T04:17:22.703Z,16.6923
2023-04-30T04:18:24.047Z,17.6000
2023-04-30T04:19:25.478Z,16.5077
2023-04-30T04:20:26.862Z,17.0923
2023-04-30T04:21:28.265Z,16.2769
2023-04-30T04:22:29.738Z,17.3231
2023-04-30T04:23:31.157Z,17.5231
2023-04-30T04:24:32.632Z,16.6000
2023-04-30T04:25:34.013Z,17.0308
2023-04-30T04:26:35.434Z,16.9231
2023-04-30T04:27:36.901Z,17.4154
2023-04-30T04:28:38.256Z,16.7385
2023-04-30T04:29:39.715Z,17.5077
2023-04-30T04:30:41.218Z,16.8462
2023-04-30T04:31:42.524Z,17.4462
2023-04-30T04:32:44.000Z,16.6000
2023-04-30T04:33:45.374Z,17.4462
2023-04-30T04:34:46.871Z,17.1077
2023-04-30T04:35:48.211Z,16.8615
2023-04-30T04:36:49.683Z,17.2154
2023-04-30T04:37:51.055Z,17.6615
2023-04-30T04:38:52.527Z,16.8000
2023-04-30T04:39:54.039Z,17.7077
2023-04-30T04:40:55.381Z,18.3231
2023-04-30T04:41:56.742Z,17.8308
2023-04-30T04:42:58.236Z,17.7385
2023-04-30T04:43:59.579Z,18.4154
2023-04-30T04:45:01.037Z,19.4462
2023-04-30T04:46:02.614Z,19.6000
2023-04-30T04:47:03.946Z,19.1846
2023-04-30T04:48:05.377Z,18.6000
2023-04-30T04:49:06.787Z,18.5692
2023-04-30T04:50:08.118Z,18.4154
2023-04-30T04:51:09.613Z,18.1077
2023-04-30T04:52:10.964Z,18.2769
2023-04-30T04:53:12.400Z,18.0308
2023-04-30T04:54:13.794Z,17.8769
2023-04-30T04:55:15.264Z,17.8000
2023-04-30T04:56:16.705Z,17.9385
2023-04-30T04:57:18.093Z,18.1077
2023-04-30T04:58:19.475Z,18.1846
2023-04-30T04:59:20.949Z,17.9692
2023-04-30T05:00:22.312Z,18.3692
2023-04-30T05:01:23.855Z,18.1077
2023-04-30T05:02:25.269Z,18.2000
2023-04-30T05:03:26.736Z,18.0154
2023-04-30T05:04:28.002Z,17.8154
2023-04-30T05:05:29.489Z,18.0308
2023-04-30T05:06:30.935Z,18.0000
2023-04-30T05:07:32.332Z,17.8769
2023-04-30T05:08:33.720Z,18.0615
2023-04-30T05:09:35.080Z,18.2000
2023-04-30T05:10:36.544Z,17.9538
2023-04-30T05:11:38.052Z,18.1846
2023-04-30T05:12:39.408Z,18.1077
2023-04-30T05:13:40.850Z,18.0615
2023-04-30T05:14:42.273Z,18.3385
2023-04-30T05:15:43.747Z,18.3385
2023-04-30T05:16:45.171Z,18.0923
2023-04-30T05:17:46.615Z,18.1077
2023-04-30T05:18:47.927Z,18.4923
2023-04-30T05:19:49.369Z,18.5538
2023-04-30T05:20:50.806Z,18.6308
2023-04-30T05:21:52.354Z,18.9538
2023-04-30T05:22:53.673Z,18.8462
2023-04-30T05:23:55.130Z,18.5538
2023-04-30T05:24:56.461Z,18.5385
2023-04-30T05:25:57.913Z,18.3077
2023-04-30T05:26:59.261Z,18.3538
2023-04-30T05:28:00.665Z,18.4000
2023-04-30T05:29:02.122Z,18.5846
2023-04-30T05:30:03.601Z,18.4615
2023-04-30T05:31:04.986Z,18.4308
2023-04-30T05:32:06.523Z,18.5846
2023-04-30T05:33:07.904Z,18.7846
2023-04-30T05:34:09.280Z,18.4923
2023-04-30T05:35:10.666Z,18.5231
2023-04-30T05:36:12.099Z,18.6923
2023-04-30T05:37:13.543Z,18.6769
2023-04-30T05:38:14.961Z,18.4615
2023-04-30T05:39:16.389Z,18.6615
2023-04-30T05:40:17.784Z,18.7692
2023-04-30T05:41:19.215Z,18.6615
2023-04-30T05:42:20.663Z,18.6154
2023-04-30T05:43:22.072Z,18.7385
2023-04-30T05:44:23.460Z,18.4308
2023-04-30T05:45:24.914Z,18.4923
2023-04-30T05:46:26.350Z,18.4769
2023-04-30T05:47:27.796Z,18.4769
2023-04-30T05:48:29.225Z,18.6154
2023-04-30T05:49:30.518Z,18.5385
2023-04-30T05:50:32.001Z,18.2462
2023-04-30T05:51:33.479Z,18.2308
2023-04-30T05:52:34.957Z,18.5538
2023-04-30T05:53:36.444Z,18.7846
2023-04-30T05:54:37.719Z,18.9538
2023-04-30T05:55:39.175Z,18.6308
2023-04-30T05:56:40.474Z,18.2308
2023-04-30T05:57:42.126Z,18.2769
2023-04-30T05:58:43.453Z,17.7385
2023-04-30T05:59:44.853Z,17.8769
2023-04-30T06:00:46.320Z,18.1077
2023-04-30T06:01:47.818Z,18.5231
2023-04-30T06:02:49.141Z,18.5385
2023-04-30T06:03:50.604Z,18.4154
2023-04-30T06:04:51.991Z,18.8615
2023-04-30T06:05:53.346Z,18.6615
2023-04-30T06:06:54.819Z,18.4923
2023-04-30T06:07:56.297Z,18.6308
2023-04-30T06:08:57.752Z,19.0308
2023-04-30T06:09:59.153Z,18.9846
2023-04-30T06:11:00.554Z,18.5077
2023-04-30T06:12:01.984Z,18.1692
2023-04-30T06:13:03.441Z,18.0615
2023-04-30T06:14:04.850Z,17.3846
2023-04-30T06:15:06.269Z,18.2154
2023-04-30T06:16:07.751Z,17.9692
2023-04-30T06:17:09.047Z,17.8615
2023-04-30T06:18:10.526Z,18.4154
2023-04-30T06:19:12.132Z,18.0462
2023-04-30T06:20:13.358Z,18.0154
2023-04-30T06:21:14.790Z,18.4923
2023-04-30T06:22:16.286Z,18.8154
2023-04-30T06:23:17.635Z,18.8923
2023-04-30T06:24:19.106Z,20.3538
2023-04-30T06:25:20.455Z,18.8769
2023-04-30T06:26:21.944Z,18.5385
2023-04-30T06:27:23.246Z,18.9692
2023-04-30T06:28:24.861Z,18.9077
2023-04-30T06:29:26.184Z,19.3538
2023-04-30T06:30:27.638Z,19.1692
2023-04-30T06:31:29.028Z,18.8462
2023-04-30T06:32:30.455Z,18.8769
2023-04-30T06:33:31.920Z,19.6000
2023-04-30T06:34:33.365Z,19.7692
2023-04-30T06:35:34.713Z,19.6615
2023-04-30T06:36:36.164Z,19.2923
2023-04-30T06:37:37.650Z,18.3846
2023-04-30T06:38:39.047Z,18.6615
2023-04-30T06:39:40.451Z,18.2615
2023-04-30T06:40:41.837Z,17.6308
2023-04-30T06:41:43.306Z,17.3231
2023-04-30T06:42:46.858Z,18.0923
2023-04-30T06:43:46.228Z,17.8308
2023-04-30T06:44:47.575Z,18.0308
2023-04-30T06:45:48.993Z,17.1538
2023-04-30T06:46:50.374Z,18.2462
2023-04-30T06:47:51.867Z,18.3538
2023-04-30T06:48:53.262Z,18.1846
2023-04-30T06:49:54.924Z,17.4615
2023-04-30T06:50:56.068Z,17.6154
2023-04-30T06:51:57.514Z,18.1385
2023-04-30T06:52:58.842Z,17.7077
2023-04-30T06:54:00.425Z,17.7385
2023-04-30T06:55:01.772Z,17.7077
2023-04-30T06:56:03.219Z,17.3692
2023-04-30T06:57:04.588Z,17.3692
2023-04-30T06:58:06.036Z,17.1692
2023-04-30T06:59:07.479Z,17.2769
2023-04-30T07:00:09.034Z,18.3538
2023-04-30T07:01:10.320Z,18.1077
2023-04-30T07:02:11.782Z,17.4769
2023-04-30T07:03:13.268Z,17.3538
2023-04-30T07:04:14.574Z,17.7231
2023-04-30T07:05:16.050Z,17.9692
2023-04-30T07:06:17.404Z,16.5692
2023-04-30T07:07:18.872Z,16.9077
2023-04-30T07:08:20.241Z,17.8308
2023-04-30T07:09:21.726Z,17.5385
2023-04-30T07:10:23.160Z,17.0308
2023-04-30T07:11:24.544Z,17.6154
2023-04-30T07:12:26.010Z,17.7385
2023-04-30T07:13:27.381Z,17.6308
2023-04-30T07:14:28.789Z,17.8154
2023-04-30T07:15:30.299Z,16.8615
2023-04-30T07:16:31.703Z,17.4154
2023-04-30T07:17:33.094Z,18.0462
2023-04-30T07:18:34.437Z,17.1538
2023-04-30T07:19:35.948Z,18.0769
2023-04-30T07:20:37.404Z,17.4308
2023-04-30T07:21:38.730Z,17.4154
2023-04-30T07:22:40.109Z,17.3231
2023-04-30T07:23:41.600Z,18.2154
2023-04-30T07:24:43.041Z,17.3231
2023-04-30T07:25:44.469Z,17.1385
2023-04-30T07:26:45.808Z,17.6615
2023-04-30T07:27:47.251Z,17.3231
2023-04-30T07:28:48.636Z,17.4000
2023-04-30T07:29:50.167Z,17.0308
2023-04-30T07:30:51.558Z,16.9692
2023-04-30T07:31:53.070Z,16.8462
2023-04-30T07:32:54.408Z,16.9846
2023-04-30T07:33:55.786Z,17.5538
2023-04-30T07:34:57.190Z,16.9692
2023-04-30T07:35:58.705Z,17.2308
2023-04-30T07:37:00.058Z,17.0462
2023-04-30T07:38:01.527Z,18.0154
2023-04-30T07:39:02.826Z,16.8615
2023-04-30T07:40:04.377Z,17.1846
2023-04-30T07:41:05.829Z,17.0000
2023-04-30T07:42:07.227Z,17.3385
2023-04-30T07:43:08.644Z,17.3692
2023-04-30T07:44:09.932Z,17.5538
2023-04-30T07:45:11.467Z,16.2923
2023-04-30T07:46:12.945Z,17.0462
2023-04-30T07:47:14.391Z,18.0000
2023-04-30T07:48:15.719Z,15.1077
2023-04-30T07:49:17.138Z,13.5077
2023-04-30T07:50:18.709Z,12.0154
2023-04-30T07:51:20.113Z,10.1692
2023-04-30T07:52:21.595Z,8.3846
2023-04-30T07:53:22.940Z,6.8769
2023-04-30T07:54:24.421Z,5.8154
2023-04-30T07:55:25.840Z,5.2769
2023-04-30T07:56:27.267Z,5.4154
2023-04-30T07:57:28.727Z,6.0154
2023-04-30T07:58:30.051Z,6.2308
2023-04-30T07:59:31.503Z,5.7692
2023-04-30T08:00:32.942Z,5.2615
2023-04-30T08:01:34.445Z,4.5231
2023-04-30T08:02:35.918Z,4.5692
2023-04-30T08:03:37.302Z,4.0923
2023-04-30T08:04:38.635Z,3.9538
2023-04-30T08:05:40.133Z,3.2000
2023-04-30T08:06:41.616Z,3.0000
2023-04-30T08:07:43.047Z,2.6000
2023-04-30T08:08:44.314Z,2.9231
2023-04-30T08:09:45.778Z,2.7538
2023-04-30T08:10:47.148Z,3.0769
2023-04-30T08:11:48.680Z,2.6462
2023-04-30T08:12:50.019Z,2.6154
2023-04-30T08:13:51.580Z,2.5846
2023-04-30T08:14:52.895Z,2.5231
2023-04-30T08:15:54.375Z,2.1692
2023-04-30T08:16:55.837Z,2.2000
2023-04-30T08:17:57.247Z,2.5692
2023-04-30T08:18:58.575Z,2.1692
2023-04-30T08:20:00.046Z,2.2769
2023-04-30T08:21:01.435Z,2.0923
2023-04-30T08:22:02.909Z,2.2769
2023-04-30T08:23:04.303Z,2.2462
2023-04-30T08:24:05.803Z,2.2615
2023-04-30T08:25:07.143Z,2.2462
2023-04-30T08:26:08.610Z,2.4000
2023-04-30T08:27:10.034Z,2.4769
2023-04-30T08:28:11.393Z,2.7231
2023-04-30T08:29:12.886Z,2.8000
2023-04-30T08:30:14.316Z,2.8769
2023-04-30T08:31:15.707Z,3.1692
2023-04-30T08:32:17.250Z,3.2462
2023-04-30T08:33:18.706Z,3.4308
2023-04-30T08:34:20.035Z,3.6615
2023-04-30T08:35:21.365Z,3.8923
2023-04-30T08:36:22.861Z,4.6462
2023-04-30T08:37:24.271Z,4.7077
2023-04-30T08:38:27.007Z,5.4615
2023-04-30T08:39:27.233Z,4.1846
2023-04-30T08:40:43.570Z,3.9538
2023-04-30T08:41:30.010Z,4.9167
2023-04-30T08:42:31.448Z,4.3077
2023-04-30T08:43:33.123Z,4.1692
2023-04-30T08:44:34.266Z,4.3692
2023-04-30T08:45:35.751Z,4.8923
2023-04-30T08:46:37.221Z,4.7846
2023-04-30T08:47:38.637Z,5.6615
2023-04-30T08:48:40.103Z,5.4923
2023-04-30T08:49:41.503Z,5.6462
2023-04-30T08:50:42.922Z,5.5692
2023-04-30T08:51:44.324Z,6.8308
2023-04-30T08:52:45.687Z,6.6308
2023-04-30T08:53:47.206Z,6.8923
2023-04-30T08:54:48.563Z,7.0462
2023-04-30T08:55:50.003Z,7.5385
2023-04-30T08:56:51.437Z,6.7385
2023-04-30T08:57:52.890Z,6.7231
2023-04-30T08:58:54.217Z,7.0615
2023-04-30T08:59:55.889Z,7.5231
2023-04-30T09:00:57.149Z,7.9692
2023-04-30T09:01:58.641Z,7.3077
2023-04-30T09:02:59.961Z,8.2615
2023-04-30T09:04:01.538Z,7.6462
2023-04-30T09:05:02.867Z,8.1846
2023-04-30T09:06:04.414Z,8.4000
2023-04-30T09:07:06.847Z,8.9692
2023-04-30T09:08:07.129Z,9.1538
2023-04-30T09:09:08.514Z,10.1077
2023-04-30T09:10:10.046Z,9.2154
2023-04-30T09:11:11.343Z,9.4462
2023-04-30T09:12:12.831Z,9.9231
2023-04-30T09:13:14.248Z,10.8308
2023-04-30T09:14:15.644Z,10.9692
2023-04-30T09:15:17.106Z,9.3385
2023-04-30T09:16:18.632Z,7.5077
2023-04-30T09:17:19.927Z,5.1538
2023-04-30T09:18:21.421Z,3.7231
2023-04-30T09:19:22.777Z,2.8154
2023-04-30T09:20:24.313Z,2.2000
2023-04-30T09:21:25.773Z,2.0000
2023-04-30T09:22:27.080Z,2.0000
2023-04-30T09:23:28.548Z,2.2308
2023-04-30T09:24:29.933Z,2.0923
2023-04-30T09:25:31.478Z,2.0308
2023-04-30T09:26:32.958Z,2.0462
2023-04-30T09:27:34.248Z,1.9692
2023-04-30T09:28:35.693Z,1.9846
2023-04-30T09:29:37.170Z,1.9692
2023-04-30T09:30:38.573Z,1.8000
2023-04-30T09:31:40.068Z,1.7692
2023-04-30T09:32:41.463Z,1.8000
2023-04-30T09:33:42.765Z,1.8000
2023-04-30T09:34:44.291Z,1.8000
2023-04-30T09:35:45.760Z,1.8308
2023-04-30T09:36:47.154Z,1.8000
2023-04-30T09:37:48.606Z,1.8000
2023-04-30T09:38:49.996Z,1.6462
2023-04-30T09:39:51.455Z,1.7231
2023-04-30T09:40:52.887Z,1.8000
2023-04-30T09:41:54.355Z,1.8923
2023-04-30T09:42:55.682Z,2.1231
2023-04-30T09:43:57.186Z,2.2769
2023-04-30T09:44:58.569Z,2.3231
2023-04-30T09:46:00.295Z,2.3385
2023-04-30T09:47:01.486Z,2.5231
2023-04-30T09:48:12.761Z,2.7077
2023-04-30T09:49:04.282Z,3.1667
2023-04-30T09:50:05.732Z,3.2462
2023-04-30T09:51:07.166Z,3.4000
2023-04-30T09:52:08.652Z,3.2615
2023-04-30T09:53:09.987Z,3.6308
2023-04-30T09:54:11.463Z,3.7385
2023-04-30T09:55:12.852Z,3.9846
2023-04-30T09:56:14.373Z,4.6154
2023-04-30T09:57:15.828Z,5.0154
2023-04-30T09:58:17.202Z,5.6923
2023-04-30T09:59:18.835Z,5.1538
2023-04-30T10:00:19.996Z,4.8615
2023-04-30T10:01:21.536Z,4.6615
2023-04-30T10:02:23.107Z,4.8000
2023-04-30T10:03:24.281Z,4.9846
2023-04-30T10:04:25.770Z,5.9077
2023-04-30T10:05:27.162Z,6.4462
2023-04-30T10:06:28.710Z,7.5077
2023-04-30T10:07:30.057Z,7.8000
2023-04-30T10:08:31.354Z,7.9231
2023-04-30T10:09:32.834Z,7.4308
2023-04-30T10:10:34.315Z,7.4308
2023-04-30T10:11:35.795Z,7.1538
2023-04-30T10:12:37.192Z,7.2462
2023-04-30T10:13:38.573Z,6.9231
2023-04-30T10:14:39.990Z,7.1231
2023-04-30T10:15:41.401Z,7.3846
2023-04-30T10:16:42.935Z,7.5846
2023-04-30T10:17:44.386Z,8.2462
2023-04-30T10:18:45.696Z,7.5692
2023-04-30T10:19:47.858Z,7.6154
2023-04-30T10:20:48.567Z,7.4154
2023-04-30T10:21:49.996Z,7.0000
2023-04-30T10:22:51.339Z,5.8000
2023-04-30T10:23:52.798Z,6.4615
2023-04-30T10:24:54.254Z,6.9538
2023-04-30T10:25:55.646Z,7.7692
2023-04-30T10:26:57.164Z,8.2615
2023-04-30T10:27:58.610Z,8.6615
2023-04-30T10:28:59.919Z,9.3538
2023-04-30T10:30:01.344Z,9.2308
2023-04-30T10:31:02.709Z,8.7077
2023-04-30T10:32:04.558Z,9.8615
2023-04-30T10:33:05.746Z,9.9385
2023-04-30T10:34:07.068Z,10.0615
2023-04-30T10:35:08.443Z,10.1846
2023-04-30T10:36:09.916Z,11.3538
2023-04-30T10:37:11.376Z,11.0154
2023-04-30T10:38:12.813Z,12.3846
2023-04-30T10:39:14.150Z,13.6308
2023-04-30T10:40:15.607Z,13.7385
2023-04-30T10:41:17.036Z,13.8769
2023-04-30T10:42:18.479Z,14.3385
2023-04-30T10:43:19.855Z,14.5077
2023-04-30T10:44:21.340Z,15.4308
2023-04-30T10:45:22.686Z,15.8308
2023-04-30T10:46:24.223Z,16.1846
2023-04-30T10:47:25.509Z,16.0923
2023-04-30T10:48:27.013Z,15.5846
2023-04-30T10:49:28.396Z,15.2462
2023-04-30T10:50:29.785Z,14.8615
2023-04-30T10:51:31.248Z,14.6000
2023-04-30T10:52:32.632Z,14.1692
2023-04-30T10:53:34.113Z,14.2462
2023-04-30T10:54:35.510Z,14.1231
2023-04-30T10:55:36.952Z,14.2000
2023-04-30T10:56:38.330Z,14.4769
2023-04-30T10:57:39.733Z,14.6000
2023-04-30T10:58:41.316Z,14.6154
2023-04-30T10:59:42.642Z,15.4462
2023-04-30T11:00:44.964Z,15.8000
2023-04-30T11:01:45.584Z,15.3385
2023-04-30T11:02:46.904Z,15.4000
2023-04-30T11:03:48.368Z,16.3385
2023-04-30T11:04:49.769Z,15.4615
2023-04-30T11:05:51.205Z,16.6308
2023-04-30T11:06:52.562Z,17.4769
2023-04-30T11:07:54.050Z,16.4769
2023-04-30T11:08:55.394Z,16.0000
2023-04-30T11:09:57.147Z,16.1385
2023-04-30T11:10:58.266Z,17.3692
2023-04-30T11:11:59.696Z,18.4923
2023-04-30T11:13:01.733Z,17.4615
2023-04-30T11:14:02.601Z,18.7385
2023-04-30T11:15:04.001Z,17.8769
2023-04-30T11:16:05.492Z,18.2462
2023-04-30T11:17:06.851Z,18.2308
2023-04-30T11:18:08.322Z,17.4462
2023-04-30T11:19:11.550Z,17.1538
2023-04-30T11:20:11.219Z,17.7846
2023-04-30T11:21:12.572Z,17.6154
2023-04-30T11:22:13.968Z,17.3846
2023-04-30T11:23:19.551Z,16.7077
2023-04-30T11:24:16.819Z,18.3500
2023-04-30T11:25:18.258Z,17.0462
2023-04-30T11:26:19.589Z,17.4308
2023-04-30T11:27:21.069Z,16.6000
2023-04-30T11:28:22.461Z,16.4308
2023-04-30T11:29:23.975Z,17.0769
2023-04-30T11:30:25.443Z,17.9231
2023-04-30T11:31:26.741Z,17.8923
2023-04-30T11:32:28.207Z,18.8000
2023-04-30T11:33:29.611Z,17.9077
2023-04-30T11:34:31.059Z,18.8308
2023-04-30T11:35:32.539Z,19.6308
2023-04-30T11:36:33.876Z,19.4923
2023-04-30T11:37:35.296Z,19.6154
2023-04-30T11:38:36.608Z,19.3077
2023-04-30T11:39:38.224Z,19.0308
2023-04-30T11:40:39.623Z,17.9692
2023-04-30T11:41:41.030Z,19.2923
2023-04-30T11:42:44.998Z,19.7846
2023-04-30T11:43:43.899Z,19.9846
2023-04-30T11:44:45.284Z,19.6462
2023-04-30T11:45:46.793Z,19.3846
2023-04-30T11:46:48.196Z,19.0308
2023-04-30T11:47:49.588Z,18.9231
2023-04-30T11:48:50.946Z,19.3538
2023-04-30T11:49:52.983Z,19.3538
2023-04-30T11:50:53.784Z,17.8923
2023-04-30T11:51:55.288Z,17.2769
2023-04-30T11:52:56.739Z,17.2923
2023-04-30T11:53:58.190Z,18.4615
2023-04-30T11:54:59.612Z,18.2769
2023-04-30T11:56:01.114Z,18.8154
2023-04-30T11:57:02.454Z,18.5385
2023-04-30T11:58:03.880Z,19.3538
2023-04-30T11:59:05.271Z,19.5538
2023-04-30T12:00:06.794Z,20.7538
2023-04-30T12:01:08.177Z,20.5692
2023-04-30T12:02:11.103Z,20.6308
2023-04-30T12:03:11.078Z,20.5385
2023-04-30T12:04:12.611Z,19.6615
2023-04-30T12:05:13.871Z,19.5692
2023-04-30T12:06:15.329Z,19.7538
2023-04-30T12:07:16.688Z,19.6615
2023-04-30T12:08:18.181Z,19.9231
2023-04-30T12:09:19.616Z,20.1846
2023-04-30T12:10:21.104Z,20.6308
2023-04-30T12:11:22.410Z,20.8923
2023-04-30T12:12:23.833Z,20.7231
2023-04-30T12:13:25.301Z,20.3538
2023-04-30T12:14:26.684Z,20.7385
2023-04-30T12:15:28.073Z,20.1231
2023-04-30T12:16:29.616Z,19.8308
2023-04-30T12:17:30.930Z,19.9231
2023-04-30T12:18:32.398Z,19.9231
2023-04-30T12:19:33.767Z,19.5692
2023-04-30T12:20:35.337Z,19.9231
2023-04-30T12:21:36.721Z,19.9385
2023-04-30T12:22:38.088Z,20.1846
2023-04-30T12:23:39.507Z,19.8615
2023-04-30T12:24:40.948Z,20.1846
2023-04-30T12:25:42.326Z,20.4308
2023-04-30T12:26:43.812Z,20.1385
2023-04-30T12:27:45.182Z,20.3385